sensor_id;sensor_type;location;lat;lon;timestamp;P1;P2;P0
57451;PMS7003;54295;51.224;-0.164;2022-07-06T00:00:25;1;1;
57451;PMS7003;54295;51.224;-0.164;2022-07-06T00:02:52;2;1;
57451;PMS7003;54295;51.224;-0.164;2022-07-06T00:05:20;2;1;
57451;PMS7003;54295;51.224;-0.164;2022-07-06T00:07:47;2;2;
57451;PMS7003;54295;51.224;-0.164;2022-07-06T00:10:14;0;0;
57451;PMS7003;54295;51.224;-0.164;2022-07-06T00:12:41;1;1;
57451;PMS7003;54295;51.224;-0.164;2022-07-06T00:15:08;1;1;
57451;PMS7003;54295;51.224;-0.164;2022-07-06T00:17:36;2;1;
57451;PMS7003;54295;51.224;-0.164;2022-07-06T00:20:03;1;1;
57451;PMS7003;54295;51.224;-0.164;2022-07-06T00:22:31;1;1;
57451;PMS7003;54295;51.224;-0.164;2022-07-06T00:24:58;2;2;
57451;PMS7003;54295;51.224;-0.164;2022-07-06T00:27:25;3;3;
57451;PMS7003;54295;51.224;-0.164;2022-07-06T00:29:52;3;2;
57451;PMS7003;54295;51.224;-0.164;2022-07-06T00:32:19;2;2;
57451;PMS7003;54295;51.224;-0.164;2022-07-06T00:34:47;2;2;
57451;PMS7003;54295;51.224;-0.164;2022-07-06T00:37:14;4;3;
57451;PMS7003;54295;51.224;-0.164;2022-07-06T00:39:41;1;1;
57451;PMS7003;54295;51.224;-0.164;2022-07-06T00:42:08;2;2;
57451;PMS7003;54295;51.224;-0.164;2022-07-06T00:44:35;1;1;
57451;PMS7003;54295;51.224;-0.164;2022-07-06T00:47:02;3;2;
57451;PMS7003;54295;51.224;-0.164;2022-07-06T00:49:29;2;2;
57451;PMS7003;54295;51.224;-0.164;2022-07-06T00:51:57;1;1;
57451;PMS7003;54295;51.224;-0.164;2022-07-06T00:54:25;2;2;
57451;PMS7003;54295;51.224;-0.164;2022-07-06T00:56:54;2;2;
57451;PMS7003;54295;51.224;-0.164;2022-07-06T00:59:21;2;2;
57451;PMS7003;54295;51.224;-0.164;2022-07-06T01:01:49;2;2;
57451;PMS7003;54295;51.224;-0.164;2022-07-06T01:04:17;1;1;
57451;PMS7003;54295;51.224;-0.164;2022-07-06T01:06:45;3;2;
57451;PMS7003;54295;51.224;-0.164;2022-07-06T01:09:12;1;1;
57451;PMS7003;54295;51.224;-0.164;2022-07-06T01:11:40;1;1;
57451;PMS7003;54295;51.224;-0.164;2022-07-06T01:14:07;2;2;
57451;PMS7003;54295;51.224;-0.164;2022-07-06T01:16:35;1;1;
57451;PMS7003;54295;51.224;-0.164;2022-07-06T01:19:03;2;2;
57451;PMS7003;54295;51.224;-0.164;2022-07-06T01:21:30;1;1;
57451;PMS7003;54295;51.224;-0.164;2022-07-06T01:23:57;4;4;
57451;PMS7003;54295;51.224;-0.164;2022-07-06T01:26:24;2;2;
57451;PMS7003;54295;51.224;-0.164;2022-07-06T01:28:51;3;3;
57451;PMS7003;54295;51.224;-0.164;2022-07-06T01:31:19;1;1;
57451;PMS7003;54295;51.224;-0.164;2022-07-06T01:33:48;2;1;
57451;PMS7003;54295;51.224;-0.164;2022-07-06T01:36:15;2;2;
57451;PMS7003;54295;51.224;-0.164;2022-07-06T01:38:44;1;1;
57451;PMS7003;54295;51.224;-0.164;2022-07-06T01:41:12;2;2;
57451;PMS7003;54295;51.224;-0.164;2022-07-06T01:43:39;1;1;
57451;PMS7003;54295;51.224;-0.164;2022-07-06T01:46:06;2;2;
57451;PMS7003;54295;51.224;-0.164;2022-07-06T01:48:33;3;3;
57451;PMS7003;54295;51.224;-0.164;2022-07-06T01:51:00;2;2;
57451;PMS7003;54295;51.224;-0.164;2022-07-06T01:53:27;1;1;
57451;PMS7003;54295;51.224;-0.164;2022-07-06T01:55:54;1;1;
57451;PMS7003;54295;51.224;-0.164;2022-07-06T01:58:22;1;1;
57451;PMS7003;54295;51.224;-0.164;2022-07-06T02:00:49;1;1;
57451;PMS7003;54295;51.224;-0.164;2022-07-06T02:03:17;1;1;
57451;PMS7003;54295;51.224;-0.164;2022-07-06T02:05:44;3;2;
57451;PMS7003;54295;51.224;-0.164;2022-07-06T02:08:11;3;3;
57451;PMS7003;54295;51.224;-0.164;2022-07-06T02:10:38;2;2;
57451;PMS7003;54295;51.224;-0.164;2022-07-06T02:13:06;2;1;
57451;PMS7003;54295;51.224;-0.164;2022-07-06T02:15:33;1;1;
57451;PMS7003;54295;51.224;-0.164;2022-07-06T02:18:00;3;2;
57451;PMS7003;54295;51.224;-0.164;2022-07-06T02:20:27;2;2;
57451;PMS7003;54295;51.224;-0.164;2022-07-06T02:22:54;3;3;
57451;PMS7003;54295;51.224;-0.164;2022-07-06T02:25:21;3;2;
57451;PMS7003;54295;51.224;-0.164;2022-07-06T02:27:49;2;2;
57451;PMS7003;54295;51.224;-0.164;2022-07-06T02:30:16;1;1;
57451;PMS7003;54295;51.224;-0.164;2022-07-06T02:32:43;4;3;
57451;PMS7003;54295;51.224;-0.164;2022-07-06T02:35:10;2;2;
57451;PMS7003;54295;51.224;-0.164;2022-07-06T02:37:37;3;2;
57451;PMS7003;54295;51.224;-0.164;2022-07-06T02:40:05;3;2;
57451;PMS7003;54295;51.224;-0.164;2022-07-06T02:42:33;3;3;
57451;PMS7003;54295;51.224;-0.164;2022-07-06T02:45:00;3;2;
57451;PMS7003;54295;51.224;-0.164;2022-07-06T02:47:28;3;3;
57451;PMS7003;54295;51.224;-0.164;2022-07-06T02:49:55;2;2;
57451;PMS7003;54295;51.224;-0.164;2022-07-06T02:52:22;2;2;
57451;PMS7003;54295;51.224;-0.164;2022-07-06T02:54:50;2;2;
57451;PMS7003;54295;51.224;-0.164;2022-07-06T02:57:17;3;3;
57451;PMS7003;54295;51.224;-0.164;2022-07-06T02:59:44;1;1;
57451;PMS7003;54295;51.224;-0.164;2022-07-06T03:02:11;3;3;
57451;PMS7003;54295;51.224;-0.164;2022-07-06T03:04:38;2;2;
57451;PMS7003;54295;51.224;-0.164;2022-07-06T03:07:06;3;3;
57451;PMS7003;54295;51.224;-0.164;2022-07-06T03:09:33;4;4;
57451;PMS7003;54295;51.224;-0.164;2022-07-06T03:12:00;4;3;
57451;PMS7003;54295;51.224;-0.164;2022-07-06T03:14:28;5;4;
57451;PMS7003;54295;51.224;-0.164;2022-07-06T03:16:55;4;4;
57451;PMS7003;54295;51.224;-0.164;2022-07-06T03:19:22;2;2;
57451;PMS7003;54295;51.224;-0.164;2022-07-06T03:21:50;3;2;
57451;PMS7003;54295;51.224;-0.164;2022-07-06T03:24:17;3;3;
57451;PMS7003;54295;51.224;-0.164;2022-07-06T03:26:44;3;3;
57451;PMS7003;54295;51.224;-0.164;2022-07-06T03:29:11;3;3;
57451;PMS7003;54295;51.224;-0.164;2022-07-06T03:31:38;2;2;
57451;PMS7003;54295;51.224;-0.164;2022-07-06T03:34:06;5;3;
57451;PMS7003;54295;51.224;-0.164;2022-07-06T03:36:33;2;2;
57451;PMS7003;54295;51.224;-0.164;2022-07-06T03:39:00;3;3;
57451;PMS7003;54295;51.224;-0.164;2022-07-06T03:41:27;3;3;
57451;PMS7003;54295;51.224;-0.164;2022-07-06T03:43:54;3;3;
57451;PMS7003;54295;51.224;-0.164;2022-07-06T03:46:21;3;3;
57451;PMS7003;54295;51.224;-0.164;2022-07-06T03:48:49;3;3;
57451;PMS7003;54295;51.224;-0.164;2022-07-06T03:51:16;3;3;
57451;PMS7003;54295;51.224;-0.164;2022-07-06T03:53:43;4;2;
57451;PMS7003;54295;51.224;-0.164;2022-07-06T03:56:10;3;2;
57451;PMS7003;54295;51.224;-0.164;2022-07-06T03:58:37;3;2;
57451;PMS7003;54295;51.224;-0.164;2022-07-06T04:01:05;3;3;
57451;PMS7003;54295;51.224;-0.164;2022-07-06T04:03:32;2;2;
57451;PMS7003;54295;51.224;-0.164;2022-07-06T04:05:59;2;2;
57451;PMS7003;54295;51.224;-0.164;2022-07-06T04:08:26;4;3;
57451;PMS7003;54295;51.224;-0.164;2022-07-06T04:10:53;3;3;
57451;PMS7003;54295;51.224;-0.164;2022-07-06T04:13:21;3;3;
57451;PMS7003;54295;51.224;-0.164;2022-07-06T04:15:48;2;2;
57451;PMS7003;54295;51.224;-0.164;2022-07-06T04:18:15;5;3;
57451;PMS7003;54295;51.224;-0.164;2022-07-06T04:20:42;2;2;
57451;PMS7003;54295;51.224;-0.164;2022-07-06T04:23:09;2;2;
57451;PMS7003;54295;51.224;-0.164;2022-07-06T04:25:37;2;2;
57451;PMS7003;54295;51.224;-0.164;2022-07-06T04:28:04;3;3;
57451;PMS7003;54295;51.224;-0.164;2022-07-06T04:30:31;3;2;
57451;PMS7003;54295;51.224;-0.164;2022-07-06T04:32:58;3;3;
57451;PMS7003;54295;51.224;-0.164;2022-07-06T04:35:25;5;5;
57451;PMS7003;54295;51.224;-0.164;2022-07-06T04:37:52;2;2;
57451;PMS7003;54295;51.224;-0.164;2022-07-06T04:40:20;3;3;
57451;PMS7003;54295;51.224;-0.164;2022-07-06T04:42:47;4;2;
57451;PMS7003;54295;51.224;-0.164;2022-07-06T04:45:14;3;2;
57451;PMS7003;54295;51.224;-0.164;2022-07-06T04:47:41;5;4;
57451;PMS7003;54295;51.224;-0.164;2022-07-06T04:50:08;3;3;
57451;PMS7003;54295;51.224;-0.164;2022-07-06T04:52:36;2;2;
57451;PMS7003;54295;51.224;-0.164;2022-07-06T04:55:03;3;3;
57451;PMS7003;54295;51.224;-0.164;2022-07-06T04:57:31;2;1;
57451;PMS7003;54295;51.224;-0.164;2022-07-06T04:59:59;5;3;
57451;PMS7003;54295;51.224;-0.164;2022-07-06T05:02:26;3;3;
57451;PMS7003;54295;51.224;-0.164;2022-07-06T05:04:53;4;3;
57451;PMS7003;54295;51.224;-0.164;2022-07-06T05:07:20;3;3;
57451;PMS7003;54295;51.224;-0.164;2022-07-06T05:09:47;4;3;
57451;PMS7003;54295;51.224;-0.164;2022-07-06T05:12:15;4;3;
57451;PMS7003;54295;51.224;-0.164;2022-07-06T05:14:42;3;3;
57451;PMS7003;54295;51.224;-0.164;2022-07-06T05:17:09;4;3;
57451;PMS7003;54295;51.224;-0.164;2022-07-06T05:19:36;3;3;
57451;PMS7003;54295;51.224;-0.164;2022-07-06T05:22:03;3;3;
57451;PMS7003;54295;51.224;-0.164;2022-07-06T05:24:30;2;2;
57451;PMS7003;54295;51.224;-0.164;2022-07-06T05:26:57;2;2;
57451;PMS7003;54295;51.224;-0.164;2022-07-06T05:29:25;5;3;
57451;PMS7003;54295;51.224;-0.164;2022-07-06T05:31:52;2;2;
57451;PMS7003;54295;51.224;-0.164;2022-07-06T05:34:19;2;2;
57451;PMS7003;54295;51.224;-0.164;2022-07-06T05:36:46;2;2;
57451;PMS7003;54295;51.224;-0.164;2022-07-06T05:39:13;4;3;
57451;PMS7003;54295;51.224;-0.164;2022-07-06T05:41:40;4;3;
57451;PMS7003;54295;51.224;-0.164;2022-07-06T05:44:07;4;4;
57451;PMS7003;54295;51.224;-0.164;2022-07-06T05:46:34;2;2;
57451;PMS7003;54295;51.224;-0.164;2022-07-06T05:49:02;3;3;
57451;PMS7003;54295;51.224;-0.164;2022-07-06T05:51:29;3;3;
57451;PMS7003;54295;51.224;-0.164;2022-07-06T05:53:56;2;2;
57451;PMS7003;54295;51.224;-0.164;2022-07-06T05:56:23;1;1;
57451;PMS7003;54295;51.224;-0.164;2022-07-06T05:58:50;2;2;
57451;PMS7003;54295;51.224;-0.164;2022-07-06T06:01:17;4;3;
57451;PMS7003;54295;51.224;-0.164;2022-07-06T06:03:44;2;2;
57451;PMS7003;54295;51.224;-0.164;2022-07-06T06:06:11;2;2;
57451;PMS7003;54295;51.224;-0.164;2022-07-06T06:08:39;4;3;
57451;PMS7003;54295;51.224;-0.164;2022-07-06T06:11:06;4;4;
57451;PMS7003;54295;51.224;-0.164;2022-07-06T06:13:33;4;3;
57451;PMS7003;54295;51.224;-0.164;2022-07-06T06:16:00;3;2;
57451;PMS7003;54295;51.224;-0.164;2022-07-06T06:18:27;1;1;
57451;PMS7003;54295;51.224;-0.164;2022-07-06T06:20:54;4;4;
57451;PMS7003;54295;51.224;-0.164;2022-07-06T06:23:21;2;2;
57451;PMS7003;54295;51.224;-0.164;2022-07-06T06:25:48;3;2;
57451;PMS7003;54295;51.224;-0.164;2022-07-06T06:28:15;4;3;
57451;PMS7003;54295;51.224;-0.164;2022-07-06T06:30:42;3;2;
57451;PMS7003;54295;51.224;-0.164;2022-07-06T06:33:10;5;5;
57451;PMS7003;54295;51.224;-0.164;2022-07-06T06:35:41;2;2;
57451;PMS7003;54295;51.224;-0.164;2022-07-06T06:38:10;4;3;
57451;PMS7003;54295;51.224;-0.164;2022-07-06T06:40:38;3;3;
57451;PMS7003;54295;51.224;-0.164;2022-07-06T06:43:05;6;6;
57451;PMS7003;54295;51.224;-0.164;2022-07-06T06:45:32;4;4;
57451;PMS7003;54295;51.224;-0.164;2022-07-06T06:47:59;6;6;
57451;PMS7003;54295;51.224;-0.164;2022-07-06T06:50:26;5;5;
57451;PMS7003;54295;51.224;-0.164;2022-07-06T06:52:54;7;7;
57451;PMS7003;54295;51.224;-0.164;2022-07-06T06:55:21;8;8;
57451;PMS7003;54295;51.224;-0.164;2022-07-06T06:57:48;8;7;
57451;PMS7003;54295;51.224;-0.164;2022-07-06T07:00:15;9;9;
57451;PMS7003;54295;51.224;-0.164;2022-07-06T07:02:43;9;9;
57451;PMS7003;54295;51.224;-0.164;2022-07-06T07:05:10;9;9;
57451;PMS7003;54295;51.224;-0.164;2022-07-06T07:07:38;11;11;
57451;PMS7003;54295;51.224;-0.164;2022-07-06T07:10:05;13;11;
57451;PMS7003;54295;51.224;-0.164;2022-07-06T07:12:33;12;12;
57451;PMS7003;54295;51.224;-0.164;2022-07-06T07:15:01;12;12;
57451;PMS7003;54295;51.224;-0.164;2022-07-06T07:17:28;13;13;
57451;PMS7003;54295;51.224;-0.164;2022-07-06T07:19:54;19;16;
57451;PMS7003;54295;51.224;-0.164;2022-07-06T07:22:21;21;18;
57451;PMS7003;54295;51.224;-0.164;2022-07-06T07:24:49;14;13;
57451;PMS7003;54295;51.224;-0.164;2022-07-06T07:27:16;12;12;
57451;PMS7003;54295;51.224;-0.164;2022-07-06T07:29:43;15;14;
57451;PMS7003;54295;51.224;-0.164;2022-07-06T07:32:09;10;10;
57451;PMS7003;54295;51.224;-0.164;2022-07-06T07:34:36;16;15;
57451;PMS7003;54295;51.224;-0.164;2022-07-06T07:37:03;14;14;
57451;PMS7003;54295;51.224;-0.164;2022-07-06T07:39:30;14;14;
57451;PMS7003;54295;51.224;-0.164;2022-07-06T07:41:57;16;15;
57451;PMS7003;54295;51.224;-0.164;2022-07-06T07:44:24;16;14;
57451;PMS7003;54295;51.224;-0.164;2022-07-06T07:46:52;23;20;
57451;PMS7003;54295;51.224;-0.164;2022-07-06T07:49:19;20;20;
57451;PMS7003;54295;51.224;-0.164;2022-07-06T07:51:47;19;19;
57451;PMS7003;54295;51.224;-0.164;2022-07-06T07:54:14;25;22;
57451;PMS7003;54295;51.224;-0.164;2022-07-06T07:56:41;19;17;
57451;PMS7003;54295;51.224;-0.164;2022-07-06T07:59:08;21;20;
57451;PMS7003;54295;51.224;-0.164;2022-07-06T08:01:35;20;19;
57451;PMS7003;54295;51.224;-0.164;2022-07-06T08:04:03;22;22;
57451;PMS7003;54295;51.224;-0.164;2022-07-06T08:06:30;24;23;
57451;PMS7003;54295;51.224;-0.164;2022-07-06T08:08:57;19;19;
57451;PMS7003;54295;51.224;-0.164;2022-07-06T08:11:29;23;23;
57451;PMS7003;54295;51.224;-0.164;2022-07-06T08:13:57;16;16;
57451;PMS7003;54295;51.224;-0.164;2022-07-06T08:16:24;21;18;
57451;PMS7003;54295;51.224;-0.164;2022-07-06T08:18:51;15;13;
57451;PMS7003;54295;51.224;-0.164;2022-07-06T08:21:18;15;13;
57451;PMS7003;54295;51.224;-0.164;2022-07-06T08:23:45;16;14;
57451;PMS7003;54295;51.224;-0.164;2022-07-06T08:26:12;11;11;
57451;PMS7003;54295;51.224;-0.164;2022-07-06T08:28:39;14;13;
57451;PMS7003;54295;51.224;-0.164;2022-07-06T08:31:06;11;11;
57451;PMS7003;54295;51.224;-0.164;2022-07-06T08:33:33;12;10;
57451;PMS7003;54295;51.224;-0.164;2022-07-06T08:36:01;11;10;
57451;PMS7003;54295;51.224;-0.164;2022-07-06T08:38:28;8;8;
57451;PMS7003;54295;51.224;-0.164;2022-07-06T08:40:55;10;9;
57451;PMS7003;54295;51.224;-0.164;2022-07-06T08:43:23;9;9;
57451;PMS7003;54295;51.224;-0.164;2022-07-06T08:45:51;7;7;
57451;PMS7003;54295;51.224;-0.164;2022-07-06T08:48:22;9;8;
57451;PMS7003;54295;51.224;-0.164;2022-07-06T08:50:50;9;9;
57451;PMS7003;54295;51.224;-0.164;2022-07-06T08:53:18;6;6;
57451;PMS7003;54295;51.224;-0.164;2022-07-06T08:55:46;8;7;
57451;PMS7003;54295;51.224;-0.164;2022-07-06T08:58:15;7;7;
57451;PMS7003;54295;51.224;-0.164;2022-07-06T09:00:42;8;7;
57451;PMS7003;54295;51.224;-0.164;2022-07-06T09:03:11;9;7;
57451;PMS7003;54295;51.224;-0.164;2022-07-06T09:05:39;6;6;
57451;PMS7003;54295;51.224;-0.164;2022-07-06T09:08:07;6;6;
57451;PMS7003;54295;51.224;-0.164;2022-07-06T09:10:34;4;4;
57451;PMS7003;54295;51.224;-0.164;2022-07-06T09:13:01;3;3;
57451;PMS7003;54295;51.224;-0.164;2022-07-06T09:15:29;5;5;
57451;PMS7003;54295;51.224;-0.164;2022-07-06T09:17:57;4;4;
57451;PMS7003;54295;51.224;-0.164;2022-07-06T09:20:24;1;1;
57451;PMS7003;54295;51.224;-0.164;2022-07-06T09:22:56;4;4;
57451;PMS7003;54295;51.224;-0.164;2022-07-06T09:25:25;2;2;
57451;PMS7003;54295;51.224;-0.164;2022-07-06T09:27:53;1;1;
57451;PMS7003;54295;51.224;-0.164;2022-07-06T09:30:21;2;2;
57451;PMS7003;54295;51.224;-0.164;2022-07-06T09:32:50;2;2;
57451;PMS7003;54295;51.224;-0.164;2022-07-06T09:35:21;3;2;
57451;PMS7003;54295;51.224;-0.164;2022-07-06T09:37:59;1;1;
57451;PMS7003;54295;51.224;-0.164;2022-07-06T09:40:29;2;2;
57451;PMS7003;54295;51.224;-0.164;2022-07-06T09:43:14;0;0;
57451;PMS7003;54295;51.224;-0.164;2022-07-06T09:45:42;2;2;
57451;PMS7003;54295;51.224;-0.164;2022-07-06T09:48:11;2;2;
57451;PMS7003;54295;51.224;-0.164;2022-07-06T09:50:41;1;1;
57451;PMS7003;54295;51.224;-0.164;2022-07-06T09:53:09;2;2;
57451;PMS7003;54295;51.224;-0.164;2022-07-06T09:55:38;1;1;
57451;PMS7003;54295;51.224;-0.164;2022-07-06T09:58:08;2;2;
57451;PMS7003;54295;51.224;-0.164;2022-07-06T10:00:35;3;2;
57451;PMS7003;54295;51.224;-0.164;2022-07-06T10:03:02;2;2;
57451;PMS7003;54295;51.224;-0.164;2022-07-06T10:05:32;2;2;
57451;PMS7003;54295;51.224;-0.164;2022-07-06T10:07:59;2;2;
57451;PMS7003;54295;51.224;-0.164;2022-07-06T10:10:28;2;2;
57451;PMS7003;54295;51.224;-0.164;2022-07-06T10:12:56;3;3;
57451;PMS7003;54295;51.224;-0.164;2022-07-06T10:15:25;3;3;
57451;PMS7003;54295;51.224;-0.164;2022-07-06T10:17:53;2;2;
57451;PMS7003;54295;51.224;-0.164;2022-07-06T10:20:21;2;2;
57451;PMS7003;54295;51.224;-0.164;2022-07-06T10:22:49;3;3;
57451;PMS7003;54295;51.224;-0.164;2022-07-06T10:25:17;1;1;
57451;PMS7003;54295;51.224;-0.164;2022-07-06T10:27:46;2;2;
57451;PMS7003;54295;51.224;-0.164;2022-07-06T10:30:14;2;2;
57451;PMS7003;54295;51.224;-0.164;2022-07-06T10:32:42;1;1;
57451;PMS7003;54295;51.224;-0.164;2022-07-06T10:35:12;3;3;
57451;PMS7003;54295;51.224;-0.164;2022-07-06T10:37:40;2;2;
57451;PMS7003;54295;51.224;-0.164;2022-07-06T10:40:08;1;1;
57451;PMS7003;54295;51.224;-0.164;2022-07-06T10:42:39;0;0;
57451;PMS7003;54295;51.224;-0.164;2022-07-06T10:45:08;0;0;
57451;PMS7003;54295;51.224;-0.164;2022-07-06T10:47:37;1;1;
57451;PMS7003;54295;51.224;-0.164;2022-07-06T10:50:06;3;3;
57451;PMS7003;54295;51.224;-0.164;2022-07-06T10:52:50;1;1;
57451;PMS7003;54295;51.224;-0.164;2022-07-06T10:55:35;0;0;
57451;PMS7003;54295;51.224;-0.164;2022-07-06T10:58:03;0;0;
57451;PMS7003;54295;51.224;-0.164;2022-07-06T11:01:03;2;1;
57451;PMS7003;54295;51.224;-0.164;2022-07-06T11:03:31;0;0;
57451;PMS7003;54295;51.224;-0.164;2022-07-06T11:05:59;1;1;
57451;PMS7003;54295;51.224;-0.164;2022-07-06T11:08:44;1;1;
57451;PMS7003;54295;51.224;-0.164;2022-07-06T11:11:13;0;0;
57451;PMS7003;54295;51.224;-0.164;2022-07-06T11:13:43;2;2;
57451;PMS7003;54295;51.224;-0.164;2022-07-06T11:16:14;1;1;
57451;PMS7003;54295;51.224;-0.164;2022-07-06T11:18:41;1;1;
57451;PMS7003;54295;51.224;-0.164;2022-07-06T11:21:16;0;0;
57451;PMS7003;54295;51.224;-0.164;2022-07-06T11:23:45;0;0;
57451;PMS7003;54295;51.224;-0.164;2022-07-06T11:26:14;1;1;
57451;PMS7003;54295;51.224;-0.164;2022-07-06T11:28:41;3;2;
57451;PMS7003;54295;51.224;-0.164;2022-07-06T11:31:11;5;4;
57451;PMS7003;54295;51.224;-0.164;2022-07-06T11:33:38;1;1;
57451;PMS7003;54295;51.224;-0.164;2022-07-06T11:36:14;5;4;
57451;PMS7003;54295;51.224;-0.164;2022-07-06T11:38:43;14;13;
57451;PMS7003;54295;51.224;-0.164;2022-07-06T11:41:12;13;13;
57451;PMS7003;54295;51.224;-0.164;2022-07-06T11:43:41;14;14;
57451;PMS7003;54295;51.224;-0.164;2022-07-06T11:46:25;22;22;
57451;PMS7003;54295;51.224;-0.164;2022-07-06T11:48:54;23;23;
57451;PMS7003;54295;51.224;-0.164;2022-07-06T11:51:24;34;32;
57451;PMS7003;54295;51.224;-0.164;2022-07-06T11:53:53;35;35;
57451;PMS7003;54295;51.224;-0.164;2022-07-06T11:56:22;39;35;
57451;PMS7003;54295;51.224;-0.164;2022-07-06T11:58:49;39;38;
57451;PMS7003;54295;51.224;-0.164;2022-07-06T12:01:18;37;36;
57451;PMS7003;54295;51.224;-0.164;2022-07-06T12:03:48;37;35;
57451;PMS7003;54295;51.224;-0.164;2022-07-06T12:06:16;36;36;
57451;PMS7003;54295;51.224;-0.164;2022-07-06T12:08:45;40;39;
57451;PMS7003;54295;51.224;-0.164;2022-07-06T12:11:18;44;43;
57451;PMS7003;54295;51.224;-0.164;2022-07-06T12:13:47;47;46;
57451;PMS7003;54295;51.224;-0.164;2022-07-06T12:16:15;42;42;
57451;PMS7003;54295;51.224;-0.164;2022-07-06T12:18:43;51;48;
57451;PMS7003;54295;51.224;-0.164;2022-07-06T12:21:15;50;50;
57451;PMS7003;54295;51.224;-0.164;2022-07-06T12:23:45;53;51;
57451;PMS7003;54295;51.224;-0.164;2022-07-06T12:26:14;49;46;
57451;PMS7003;54295;51.224;-0.164;2022-07-06T12:28:43;47;46;
57451;PMS7003;54295;51.224;-0.164;2022-07-06T12:31:10;36;34;
57451;PMS7003;54295;51.224;-0.164;2022-07-06T12:33:57;31;30;
57451;PMS7003;54295;51.224;-0.164;2022-07-06T12:36:25;48;45;
57451;PMS7003;54295;51.224;-0.164;2022-07-06T12:38:52;28;26;
57451;PMS7003;54295;51.224;-0.164;2022-07-06T12:41:27;28;27;
57451;PMS7003;54295;51.224;-0.164;2022-07-06T12:44:03;19;19;
57451;PMS7003;54295;51.224;-0.164;2022-07-06T12:46:33;30;30;
57451;PMS7003;54295;51.224;-0.164;2022-07-06T12:49:02;37;36;
57451;PMS7003;54295;51.224;-0.164;2022-07-06T12:51:52;48;43;
57451;PMS7003;54295;51.224;-0.164;2022-07-06T12:54:22;44;43;
57451;PMS7003;54295;51.224;-0.164;2022-07-06T12:57:07;40;37;
57451;PMS7003;54295;51.224;-0.164;2022-07-06T12:59:37;36;34;
57451;PMS7003;54295;51.224;-0.164;2022-07-06T13:02:06;29;27;
57451;PMS7003;54295;51.224;-0.164;2022-07-06T13:04:35;29;28;
57451;PMS7003;54295;51.224;-0.164;2022-07-06T13:07:03;31;29;
57451;PMS7003;54295;51.224;-0.164;2022-07-06T13:09:31;33;31;
57451;PMS7003;54295;51.224;-0.164;2022-07-06T13:11:58;27;25;
57451;PMS7003;54295;51.224;-0.164;2022-07-06T13:14:25;26;25;
57451;PMS7003;54295;51.224;-0.164;2022-07-06T13:16:53;29;27;
57451;PMS7003;54295;51.224;-0.164;2022-07-06T13:19:20;26;25;
57451;PMS7003;54295;51.224;-0.164;2022-07-06T13:21:46;26;25;
57451;PMS7003;54295;51.224;-0.164;2022-07-06T13:24:14;32;30;
57451;PMS7003;54295;51.224;-0.164;2022-07-06T13:26:42;42;37;
57451;PMS7003;54295;51.224;-0.164;2022-07-06T13:29:09;29;27;
57451;PMS7003;54295;51.224;-0.164;2022-07-06T13:31:37;31;30;
57451;PMS7003;54295;51.224;-0.164;2022-07-06T13:34:06;36;35;
57451;PMS7003;54295;51.224;-0.164;2022-07-06T13:36:34;33;32;
57451;PMS7003;54295;51.224;-0.164;2022-07-06T13:39:02;31;30;
57451;PMS7003;54295;51.224;-0.164;2022-07-06T13:41:29;25;25;
57451;PMS7003;54295;51.224;-0.164;2022-07-06T13:43:57;24;24;
57451;PMS7003;54295;51.224;-0.164;2022-07-06T13:46:24;21;20;
57451;PMS7003;54295;51.224;-0.164;2022-07-06T13:48:51;27;25;
57451;PMS7003;54295;51.224;-0.164;2022-07-06T13:51:18;22;22;
57451;PMS7003;54295;51.224;-0.164;2022-07-06T13:53:46;26;24;
57451;PMS7003;54295;51.224;-0.164;2022-07-06T13:56:13;23;22;
57451;PMS7003;54295;51.224;-0.164;2022-07-06T13:58:40;24;22;
57451;PMS7003;54295;51.224;-0.164;2022-07-06T14:01:08;26;24;
57451;PMS7003;54295;51.224;-0.164;2022-07-06T14:03:35;26;24;
57451;PMS7003;54295;51.224;-0.164;2022-07-06T14:06:02;25;24;
57451;PMS7003;54295;51.224;-0.164;2022-07-06T14:08:31;23;23;
57451;PMS7003;54295;51.224;-0.164;2022-07-06T14:10:58;23;22;
57451;PMS7003;54295;51.224;-0.164;2022-07-06T14:13:25;25;23;
57451;PMS7003;54295;51.224;-0.164;2022-07-06T14:15:52;21;20;
57451;PMS7003;54295;51.224;-0.164;2022-07-06T14:18:20;19;18;
57451;PMS7003;54295;51.224;-0.164;2022-07-06T14:20:48;16;16;
57451;PMS7003;54295;51.224;-0.164;2022-07-06T14:23:17;14;13;
57451;PMS7003;54295;51.224;-0.164;2022-07-06T14:25:45;14;13;
57451;PMS7003;54295;51.224;-0.164;2022-07-06T14:28:12;12;12;
57451;PMS7003;54295;51.224;-0.164;2022-07-06T14:30:40;11;11;
57451;PMS7003;54295;51.224;-0.164;2022-07-06T14:33:08;10;10;
57451;PMS7003;54295;51.224;-0.164;2022-07-06T14:35:36;8;8;
57451;PMS7003;54295;51.224;-0.164;2022-07-06T14:38:04;9;8;
57451;PMS7003;54295;51.224;-0.164;2022-07-06T14:40:32;6;5;
57451;PMS7003;54295;51.224;-0.164;2022-07-06T14:43:01;4;4;
57451;PMS7003;54295;51.224;-0.164;2022-07-06T14:45:29;5;5;
57451;PMS7003;54295;51.224;-0.164;2022-07-06T14:47:56;4;4;
57451;PMS7003;54295;51.224;-0.164;2022-07-06T14:50:24;6;6;
57451;PMS7003;54295;51.224;-0.164;2022-07-06T14:52:52;3;3;
57451;PMS7003;54295;51.224;-0.164;2022-07-06T14:55:19;5;5;
57451;PMS7003;54295;51.224;-0.164;2022-07-06T14:57:48;5;5;
57451;PMS7003;54295;51.224;-0.164;2022-07-06T15:00:17;8;8;
57451;PMS7003;54295;51.224;-0.164;2022-07-06T15:02:44;7;7;
57451;PMS7003;54295;51.224;-0.164;2022-07-06T15:05:11;9;9;
57451;PMS7003;54295;51.224;-0.164;2022-07-06T15:07:40;6;6;
57451;PMS7003;54295;51.224;-0.164;2022-07-06T15:10:08;4;4;
57451;PMS7003;54295;51.224;-0.164;2022-07-06T15:12:35;4;4;
57451;PMS7003;54295;51.224;-0.164;2022-07-06T15:15:04;9;9;
57451;PMS7003;54295;51.224;-0.164;2022-07-06T15:17:31;13;13;
57451;PMS7003;54295;51.224;-0.164;2022-07-06T15:19:58;10;10;
57451;PMS7003;54295;51.224;-0.164;2022-07-06T15:22:26;15;15;
57451;PMS7003;54295;51.224;-0.164;2022-07-06T15:24:53;14;14;
57451;PMS7003;54295;51.224;-0.164;2022-07-06T15:27:20;20;20;
57451;PMS7003;54295;51.224;-0.164;2022-07-06T15:29:47;22;20;
57451;PMS7003;54295;51.224;-0.164;2022-07-06T15:32:14;18;17;
57451;PMS7003;54295;51.224;-0.164;2022-07-06T15:34:41;18;15;
57451;PMS7003;54295;51.224;-0.164;2022-07-06T15:37:08;16;13;
57451;PMS7003;54295;51.224;-0.164;2022-07-06T15:39:36;12;11;
57451;PMS7003;54295;51.224;-0.164;2022-07-06T15:42:04;10;10;
57451;PMS7003;54295;51.224;-0.164;2022-07-06T15:44:31;11;11;
57451;PMS7003;54295;51.224;-0.164;2022-07-06T15:47:03;9;9;
57451;PMS7003;54295;51.224;-0.164;2022-07-06T15:49:31;7;7;
57451;PMS7003;54295;51.224;-0.164;2022-07-06T15:51:58;7;7;
57451;PMS7003;54295;51.224;-0.164;2022-07-06T15:54:25;7;7;
57451;PMS7003;54295;51.224;-0.164;2022-07-06T15:56:52;7;7;
57451;PMS7003;54295;51.224;-0.164;2022-07-06T15:59:20;5;4;
57451;PMS7003;54295;51.224;-0.164;2022-07-06T16:01:47;6;6;
57451;PMS7003;54295;51.224;-0.164;2022-07-06T16:04:14;4;4;
57451;PMS7003;54295;51.224;-0.164;2022-07-06T16:06:40;3;3;
57451;PMS7003;54295;51.224;-0.164;2022-07-06T16:09:07;5;4;
57451;PMS7003;54295;51.224;-0.164;2022-07-06T16:11:34;6;6;
57451;PMS7003;54295;51.224;-0.164;2022-07-06T16:14:01;4;4;
57451;PMS7003;54295;51.224;-0.164;2022-07-06T16:16:28;5;5;
57451;PMS7003;54295;51.224;-0.164;2022-07-06T16:18:55;3;3;
57451;PMS7003;54295;51.224;-0.164;2022-07-06T16:21:22;5;4;
57451;PMS7003;54295;51.224;-0.164;2022-07-06T16:23:49;3;3;
57451;PMS7003;54295;51.224;-0.164;2022-07-06T16:26:16;5;4;
57451;PMS7003;54295;51.224;-0.164;2022-07-06T16:28:43;5;4;